createdAt,value
2018-11-10T00:01:13.657Z,5.90
2018-11-10T00:03:41.227Z,6.00
2018-11-10T00:06:08.846Z,6.00
2018-11-10T00:08:38.355Z,5.90
2018-11-10T00:11:05.885Z,5.90
2018-11-10T00:13:33.447Z,5.90
2018-11-10T00:16:01.752Z,6.00
2018-11-10T00:18:29.318Z,6.00
2018-11-10T00:20:56.852Z,6.10
2018-11-10T00:23:24.428Z,6.10
2018-11-10T00:25:52.935Z,6.10
2018-11-10T00:28:21.484Z,6.20
2018-11-10T00:30:49.105Z,6.20
2018-11-10T00:33:16.670Z,6.20
2018-11-10T00:35:44.211Z,6.30
2018-11-10T00:38:11.795Z,6.40
2018-11-10T00:40:39.326Z,6.40
2018-11-10T00:43:06.889Z,6.40
2018-11-10T00:45:35.195Z,6.70
2018-11-10T00:48:02.762Z,6.70
2018-11-10T00:50:30.307Z,6.80
2018-11-10T00:52:57.878Z,6.70
2018-11-10T00:55:25.426Z,6.80
2018-11-10T00:57:53.097Z,6.80
2018-11-10T01:00:20.661Z,6.70
2018-11-10T01:02:48.235Z,6.80
2018-11-10T01:05:15.762Z,6.80
2018-11-10T01:07:43.338Z,6.90
2018-11-10T01:10:11.359Z,7.00
2018-11-10T01:12:39.703Z,7.10
2018-11-10T01:15:07.233Z,7.10
2018-11-10T01:17:36.769Z,7.10
2018-11-10T01:20:04.334Z,7.20
2018-11-10T01:22:31.870Z,7.20
2018-11-10T01:24:59.440Z,7.20
2018-11-10T01:27:27.009Z,7.20
2018-11-10T01:29:55.498Z,7.20
2018-11-10T01:32:23.062Z,7.20
2018-11-10T01:34:50.606Z,7.30
2018-11-10T01:37:18.174Z,7.30
2018-11-10T01:39:45.746Z,7.30
2018-11-10T01:42:13.292Z,7.30
2018-11-10T01:44:40.866Z,7.30
2018-11-10T01:47:08.441Z,7.40
2018-11-10T01:49:36.013Z,7.40
2018-11-10T01:52:03.582Z,7.30
2018-11-10T01:54:31.151Z,7.30
2018-11-10T01:56:59.641Z,7.30
2018-11-10T01:59:27.165Z,7.30
2018-11-10T02:01:54.725Z,7.20
2018-11-10T02:04:22.254Z,7.20
2018-11-10T02:06:49.933Z,7.10
2018-11-10T02:09:17.370Z,7.10
2018-11-10T02:11:44.925Z,7.10
2018-11-10T02:14:12.494Z,7.20
2018-11-10T02:16:40.981Z,7.20
2018-11-10T02:19:08.538Z,7.20
2018-11-10T02:21:37.045Z,7.30
2018-11-10T02:24:04.621Z,7.30
2018-11-10T02:26:32.157Z,7.40
2018-11-10T02:28:59.714Z,7.40
2018-11-10T02:31:28.073Z,7.50
2018-11-10T02:33:55.631Z,7.40
2018-11-10T02:36:23.157Z,7.50
2018-11-10T02:38:50.796Z,7.60
2018-11-10T02:41:18.269Z,7.60
2018-11-10T02:43:45.841Z,7.60
2018-11-10T02:46:13.385Z,7.70
2018-11-10T02:48:40.954Z,7.70
2018-11-10T02:51:08.478Z,7.70
2018-11-10T02:53:36.038Z,7.70
2018-11-10T02:56:04.337Z,7.60
2018-11-10T02:58:31.932Z,7.60
2018-11-10T03:00:59.456Z,7.60
2018-11-10T03:03:27.971Z,7.50
2018-11-10T03:05:55.531Z,7.60
2018-11-10T03:08:23.052Z,7.50
2018-11-10T03:10:50.681Z,7.50
2018-11-10T03:13:20.160Z,7.60
2018-11-10T03:15:47.692Z,7.60
2018-11-10T03:18:15.249Z,7.60
2018-11-10T03:20:42.805Z,7.70
2018-11-10T03:23:10.333Z,7.70
2018-11-10T03:25:38.861Z,7.70
2018-11-10T03:28:06.389Z,7.80
2018-11-10T03:30:34.029Z,7.80
2018-11-10T03:33:01.557Z,7.80
2018-11-10T03:35:29.912Z,7.80
2018-11-10T03:37:57.437Z,7.80
2018-11-10T03:40:25.006Z,7.80
2018-11-10T03:42:52.541Z,7.80
2018-11-10T03:45:21.101Z,7.90
2018-11-10T03:47:48.625Z,7.90
2018-11-10T03:50:16.211Z,8.00
2018-11-10T03:52:43.781Z,8.10
2018-11-10T03:55:11.631Z,8.10
2018-11-10T03:57:39.190Z,8.10
2018-11-10T04:00:07.492Z,8.20
2018-11-10T04:02:35.053Z,8.20
2018-11-10T04:05:02.582Z,8.20
2018-11-10T04:07:30.146Z,8.20
2018-11-10T04:09:57.682Z,8.30
2018-11-10T04:12:26.265Z,8.10
2018-11-10T04:14:53.797Z,8.10
2018-11-10T04:17:21.354Z,8.10
2018-11-10T04:19:48.914Z,8.10
2018-11-10T04:22:16.436Z,8.10
2018-11-10T04:24:44.010Z,8.10
2018-11-10T04:27:11.574Z,8.10
2018-11-10T04:29:39.136Z,8.10
2018-11-10T04:32:06.668Z,8.10
2018-11-10T04:34:34.230Z,8.10
2018-11-10T04:37:01.794Z,8.10
2018-11-10T04:39:29.353Z,8.20
2018-11-10T04:41:56.877Z,8.20
2018-11-10T04:44:24.428Z,8.20
2018-11-10T04:46:51.993Z,8.20
2018-11-10T04:49:19.625Z,8.20
2018-11-10T04:51:49.125Z,8.30
2018-11-10T04:54:16.651Z,8.30
2018-11-10T04:56:44.217Z,8.30
2018-11-10T04:59:11.744Z,8.30
2018-11-10T05:01:39.309Z,8.30
2018-11-10T05:04:06.837Z,8.30
2018-11-10T05:06:34.372Z,8.30
2018-11-10T05:09:02.693Z,8.30
2018-11-10T05:11:30.254Z,8.30
2018-11-10T05:13:57.824Z,8.30
2018-11-10T05:16:25.353Z,8.30
2018-11-10T05:18:52.922Z,8.40
2018-11-10T05:21:20.445Z,8.40
2018-11-10T05:23:48.005Z,8.40
2018-11-10T05:26:15.533Z,8.40
2018-11-10T05:28:43.857Z,8.50
2018-11-10T05:31:11.495Z,8.40
2018-11-10T05:33:40.110Z,8.50
2018-11-10T05:36:07.644Z,8.50
2018-11-10T05:38:37.150Z,8.50
2018-11-10T05:41:04.678Z,8.50
2018-11-10T05:43:33.169Z,8.50
2018-11-10T05:46:02.682Z,8.50
2018-11-10T05:48:30.969Z,8.50
2018-11-10T05:50:58.600Z,8.50
2018-11-10T05:53:26.120Z,8.40
2018-11-10T05:55:53.682Z,8.40
2018-11-10T05:58:21.205Z,8.50
2018-11-10T06:00:50.746Z,8.40
2018-11-10T06:03:18.297Z,8.40
2018-11-10T06:05:45.858Z,8.40
2018-11-10T06:08:13.390Z,8.50
2018-11-10T06:10:42.903Z,8.50
2018-11-10T06:13:11.402Z,8.60
2018-11-10T06:15:38.963Z,8.60
2018-11-10T06:18:07.463Z,8.60
2018-11-10T06:20:36.781Z,8.70
2018-11-10T06:23:04.418Z,8.70
2018-11-10T06:25:31.954Z,8.60
2018-11-10T06:28:01.449Z,8.70
2018-11-10T06:30:29.017Z,8.70
2018-11-10T06:32:56.577Z,8.70
2018-11-10T06:35:24.109Z,8.70
2018-11-10T06:37:51.669Z,8.80
2018-11-10T06:40:20.201Z,8.80
2018-11-10T06:42:47.760Z,8.80
2018-11-10T06:45:15.298Z,8.80
2018-11-10T06:47:43.620Z,8.70
2018-11-10T06:50:12.006Z,8.80
2018-11-10T06:52:39.621Z,8.70
2018-11-10T06:55:07.127Z,8.80
2018-11-10T06:57:34.657Z,8.70
2018-11-10T07:00:02.221Z,8.80
2018-11-10T07:02:29.761Z,8.80
2018-11-10T07:04:57.314Z,8.80
2018-11-10T07:07:24.845Z,8.90
2018-11-10T07:09:53.177Z,8.90
2018-11-10T07:12:20.726Z,8.90
2018-11-10T07:14:49.217Z,9.00
2018-11-10T07:17:18.800Z,9.00
2018-11-10T07:19:46.322Z,9.10
2018-11-10T07:22:13.886Z,9.00
2018-11-10T07:24:42.249Z,9.20
2018-11-10T07:27:10.557Z,9.30
2018-11-10T07:29:38.122Z,9.30
2018-11-10T07:32:05.754Z,9.40
2018-11-10T07:34:33.262Z,9.40
2018-11-10T07:37:00.818Z,9.50
2018-11-10T07:39:28.385Z,9.50
2018-11-10T07:41:55.918Z,9.70
2018-11-10T07:44:23.477Z,9.80
2018-11-10T07:46:51.041Z,9.90
2018-11-10T07:49:18.666Z,10.10
2018-11-10T07:51:46.163Z,10.30
2018-11-10T07:54:13.729Z,10.40
2018-11-10T07:56:42.237Z,10.60
2018-11-10T07:59:10.565Z,10.90
2018-11-10T08:01:38.103Z,10.90
2018-11-10T08:04:05.906Z,10.90
2018-11-10T08:06:33.434Z,11.00
2018-11-10T08:09:01.007Z,11.10
2018-11-10T08:11:28.542Z,11.20
2018-11-10T08:13:56.077Z,11.20
2018-11-10T08:16:23.654Z,11.40
2018-11-10T08:18:51.190Z,11.50
2018-11-10T08:21:19.721Z,11.70
2018-11-10T08:23:47.354Z,11.80
2018-11-10T08:26:14.913Z,11.80
2018-11-10T08:28:42.438Z,11.90
2018-11-10T08:31:11.913Z,11.90
2018-11-10T08:33:39.446Z,12.00
2018-11-10T08:36:07.086Z,12.00
2018-11-10T08:38:34.721Z,12.10
2018-11-10T08:41:02.288Z,12.10
2018-11-10T08:43:29.847Z,12.10
2018-11-10T08:45:58.338Z,12.10
2018-11-10T08:48:25.931Z,12.20
2018-11-10T08:50:53.496Z,12.20
2018-11-10T08:53:23.008Z,12.30
2018-11-10T08:55:51.508Z,12.30
2018-11-10T08:58:19.842Z,12.50
2018-11-10T09:00:47.411Z,12.50
2018-11-10T09:03:14.973Z,12.60
2018-11-10T09:05:42.507Z,12.70
2018-11-10T09:08:10.078Z,12.70
2018-11-10T09:10:37.645Z,12.80
2018-11-10T09:13:05.250Z,12.90
2018-11-10T09:15:32.796Z,13.00
2018-11-10T09:18:00.361Z,13.00
2018-11-10T09:20:28.873Z,13.10
2018-11-10T09:22:56.446Z,13.10
2018-11-10T09:25:23.973Z,13.00
2018-11-10T09:27:51.535Z,13.10
2018-11-10T09:30:19.073Z,13.10
2018-11-10T09:32:46.638Z,13.20
2018-11-10T09:35:14.169Z,13.20
2018-11-10T09:37:41.736Z,13.30
2018-11-10T09:40:09.267Z,13.40
2018-11-10T09:42:39.067Z,13.40
2018-11-10T09:45:06.359Z,13.50
2018-11-10T09:47:33.922Z,13.60
2018-11-10T09:50:01.466Z,13.80
2018-11-10T09:52:29.035Z,13.80
2018-11-10T09:54:56.557Z,13.90
2018-11-10T09:57:24.130Z,13.90
2018-11-10T09:59:52.433Z,14.10
2018-11-10T10:02:20.325Z,14.10
2018-11-10T10:04:47.562Z,14.20
2018-11-10T10:07:15.127Z,14.20
2018-11-10T10:09:44.634Z,14.40
2018-11-10T10:12:12.265Z,14.50
2018-11-10T10:14:39.825Z,14.40
2018-11-10T10:17:09.597Z,14.50
2018-11-10T10:19:37.187Z,14.70
2018-11-10T10:22:06.149Z,14.90
2018-11-10T10:24:33.757Z,15.10
2018-11-10T10:27:01.294Z,15.40
2018-11-10T10:29:28.854Z,15.50
2018-11-10T10:31:56.390Z,15.70
2018-11-10T10:34:24.134Z,15.80
2018-11-10T10:36:51.650Z,15.80
2018-11-10T10:39:19.209Z,15.80
2018-11-10T10:41:46.742Z,15.90
2018-11-10T10:44:14.313Z,15.90
2018-11-10T10:46:41.846Z,16.10
2018-11-10T10:49:09.514Z,16.10
2018-11-10T10:51:37.966Z,16.20
2018-11-10T10:54:05.524Z,16.30
2018-11-10T10:56:33.180Z,16.20
2018-11-10T10:59:00.640Z,16.30
2018-11-10T11:04:23.446Z,16.40
2018-11-10T11:06:50.979Z,16.60
2018-11-10T11:09:18.547Z,16.60
2018-11-10T11:11:46.121Z,16.80
2018-11-10T11:14:17.002Z,17.00
2018-11-10T11:16:45.554Z,17.20
2018-11-10T11:19:13.125Z,17.40
2018-11-10T11:21:43.407Z,17.70
2018-11-10T11:24:10.986Z,17.80
2018-11-10T11:26:38.529Z,17.90
2018-11-10T11:29:06.137Z,17.90
2018-11-10T11:31:34.649Z,18.10
2018-11-10T11:34:02.219Z,18.30
2018-11-10T11:36:29.759Z,18.20
2018-11-10T11:38:57.292Z,18.30
2018-11-10T11:41:24.954Z,18.20
2018-11-10T11:43:52.430Z,18.20
2018-11-10T11:46:20.006Z,17.90
2018-11-10T11:48:47.541Z,17.90
2018-11-10T11:51:15.129Z,17.80
2018-11-10T11:53:42.699Z,17.70
2018-11-10T11:56:10.297Z,17.60
2018-11-10T11:58:39.825Z,17.20
2018-11-10T12:01:07.368Z,17.00
2018-11-10T12:03:36.876Z,16.90
2018-11-10T12:06:04.450Z,16.70
2018-11-10T12:08:32.018Z,16.60
2018-11-10T12:10:59.558Z,16.40
2018-11-10T12:13:27.224Z,16.20
2018-11-10T12:15:54.806Z,15.90
2018-11-10T12:18:22.398Z,15.80
2018-11-10T12:20:49.972Z,15.90
2018-11-10T12:23:17.545Z,16.00
2018-11-10T12:25:45.125Z,16.10
2018-11-10T12:28:12.751Z,16.10
2018-11-10T12:30:40.280Z,15.90
2018-11-10T12:33:07.853Z,15.80
2018-11-10T12:35:35.423Z,15.80
2018-11-10T12:38:03.010Z,15.70
2018-11-10T12:40:31.543Z,15.70
2018-11-10T12:42:59.093Z,15.60
2018-11-10T12:45:26.677Z,15.60
2018-11-10T12:47:54.246Z,15.60
2018-11-10T12:50:21.776Z,15.70
2018-11-10T12:52:49.316Z,15.70
2018-11-10T12:55:17.679Z,15.70
2018-11-10T12:57:45.219Z,15.70
2018-11-10T13:00:12.795Z,15.80
2018-11-10T13:02:40.322Z,15.80
2018-11-10T13:05:07.902Z,15.70
2018-11-10T13:07:35.430Z,15.70
2018-11-10T13:10:03.010Z,15.80
2018-11-10T13:12:30.549Z,15.70
2018-11-10T13:15:00.057Z,15.80
2018-11-10T13:17:27.683Z,15.80
2018-11-10T13:19:55.185Z,15.90
2018-11-10T13:22:22.724Z,15.90
2018-11-10T13:24:50.285Z,16.00
2018-11-10T13:27:17.825Z,16.10
2018-11-10T13:29:45.392Z,16.20
2018-11-10T13:32:12.934Z,16.20
2018-11-10T13:34:40.699Z,16.20
2018-11-10T13:37:08.324Z,16.20
2018-11-10T13:39:35.896Z,16.20
2018-11-10T13:42:03.437Z,16.10
2018-11-10T13:44:31.063Z,16.10
2018-11-10T13:46:58.572Z,16.10
2018-11-10T13:49:26.162Z,16.10
2018-11-10T13:51:54.119Z,16.00
2018-11-10T13:54:21.404Z,15.90
2018-11-10T13:56:50.255Z,15.90
2018-11-10T13:59:17.819Z,15.80
2018-11-10T14:01:45.398Z,15.70
2018-11-10T14:04:12.938Z,15.60
2018-11-10T14:06:40.506Z,15.60
2018-11-10T14:09:08.040Z,15.60
2018-11-10T14:11:35.605Z,15.60
2018-11-10T14:14:03.178Z,15.60
2018-11-10T14:16:30.706Z,15.60
2018-11-10T14:18:58.306Z,15.60
2018-11-10T14:21:25.881Z,15.50
2018-11-10T14:23:53.459Z,15.40
2018-11-10T14:26:21.061Z,15.20
2018-11-10T14:28:50.523Z,15.10
2018-11-10T14:31:18.085Z,15.10
2018-11-10T14:33:45.654Z,15.00
2018-11-10T14:36:13.181Z,14.90
2018-11-10T14:38:41.508Z,14.90
2018-11-10T14:41:09.074Z,14.90
2018-11-10T14:43:36.673Z,14.90
2018-11-10T14:46:04.262Z,14.90
2018-11-10T14:48:33.786Z,14.90
2018-11-10T14:51:03.283Z,14.80
2018-11-10T14:53:30.845Z,14.80
2018-11-10T14:55:58.379Z,14.80
2018-11-10T14:58:25.973Z,14.70
2018-11-10T15:00:53.909Z,14.70
2018-11-10T15:03:21.668Z,14.60
2018-11-10T15:05:49.286Z,14.60
2018-11-10T15:08:16.828Z,14.40
2018-11-10T15:10:44.355Z,14.40
2018-11-10T15:13:11.922Z,14.40
2018-11-10T15:15:39.492Z,14.30
2018-11-10T15:18:07.091Z,14.30
2018-11-10T15:20:34.639Z,14.30
2018-11-10T15:23:02.171Z,14.20
2018-11-10T15:25:29.745Z,14.20
2018-11-10T15:27:57.273Z,14.10
2018-11-10T15:30:24.850Z,14.10
2018-11-10T15:32:52.382Z,14.00
2018-11-10T15:35:19.949Z,14.00
2018-11-10T15:37:47.664Z,14.00
2018-11-10T15:40:15.107Z,13.90
2018-11-10T15:42:42.641Z,13.80
2018-11-10T15:45:10.213Z,13.80
2018-11-10T15:47:38.541Z,13.70
2018-11-10T15:50:06.087Z,13.70
2018-11-10T15:52:33.653Z,13.70
2018-11-10T15:55:01.216Z,13.60
2018-11-10T15:57:28.746Z,13.60
2018-11-10T15:59:56.314Z,13.60
2018-11-10T16:02:25.872Z,13.60
2018-11-10T16:04:53.570Z,13.50
2018-11-10T16:07:21.150Z,13.50
2018-11-10T16:09:49.657Z,13.40
2018-11-10T16:12:17.999Z,13.30
2018-11-10T16:14:45.543Z,13.30
2018-11-10T16:17:13.113Z,13.20
2018-11-10T16:19:40.640Z,13.10
2018-11-10T16:22:08.218Z,13.10
2018-11-10T16:24:35.754Z,13.00
2018-11-10T16:27:03.302Z,13.00
2018-11-10T16:29:30.865Z,12.90
2018-11-10T16:31:58.446Z,12.90
2018-11-10T16:34:26.023Z,12.90
2018-11-10T16:36:53.579Z,12.80
2018-11-10T16:39:21.153Z,12.80
2018-11-10T16:41:48.697Z,12.70
2018-11-10T16:44:16.266Z,12.60
2018-11-10T16:46:43.808Z,12.60
2018-11-10T16:49:11.378Z,12.50
2018-11-10T16:51:38.914Z,12.50
2018-11-10T16:54:06.484Z,12.50
2018-11-10T16:56:34.019Z,12.50
2018-11-10T16:59:01.645Z,12.60
2018-11-10T17:01:29.141Z,12.50
2018-11-10T17:03:56.722Z,12.50
2018-11-10T17:06:24.261Z,12.30
2018-11-10T17:08:51.984Z,12.30
2018-11-10T17:11:19.437Z,12.20
2018-11-10T17:13:47.009Z,12.20
2018-11-10T17:16:15.509Z,12.10
2018-11-10T17:18:43.120Z,12.20
2018-11-10T17:21:10.638Z,12.10
2018-11-10T17:23:38.219Z,12.10
2018-11-10T17:26:06.529Z,12.10
2018-11-10T17:28:34.097Z,12.10
2018-11-10T17:31:01.633Z,12.10
2018-11-10T17:33:29.194Z,12.10
2018-11-10T17:35:57.976Z,12.20
2018-11-10T17:38:25.558Z,12.20
2018-11-10T17:40:53.108Z,12.20
2018-11-10T17:43:20.645Z,12.30
2018-11-10T17:45:48.213Z,12.30
2018-11-10T17:48:15.774Z,12.30
2018-11-10T17:50:43.337Z,12.30
2018-11-10T17:53:12.845Z,12.30
2018-11-10T17:55:40.380Z,12.30
2018-11-10T17:58:07.954Z,12.30
2018-11-10T18:00:36.457Z,12.30
2018-11-10T18:03:03.994Z,12.40
2018-11-10T18:05:31.577Z,12.40
2018-11-10T18:07:59.104Z,12.50
2018-11-10T18:10:26.638Z,12.40
2018-11-10T18:12:55.030Z,12.50
2018-11-10T18:15:22.561Z,12.50
2018-11-10T18:17:50.135Z,12.50
2018-11-10T18:20:17.677Z,12.50
2018-11-10T18:22:47.936Z,12.50
2018-11-10T18:25:15.553Z,12.40
2018-11-10T18:27:43.075Z,12.50
2018-11-10T18:30:11.393Z,12.40
2018-11-10T18:32:39.005Z,12.50
2018-11-10T18:35:06.528Z,12.40
2018-11-10T18:37:34.102Z,12.40
2018-11-10T18:40:01.685Z,12.50
2018-11-10T18:42:29.225Z,12.40
2018-11-10T18:44:56.784Z,12.40
2018-11-10T18:47:24.309Z,12.40
2018-11-10T18:49:51.869Z,12.40
2018-11-10T18:52:19.505Z,12.40
2018-11-10T18:54:47.021Z,12.30
2018-11-10T18:57:14.619Z,12.30
2018-11-10T18:59:42.155Z,12.30
2018-11-10T19:02:09.731Z,12.30
2018-11-10T19:04:37.302Z,12.30
2018-11-10T19:07:04.837Z,12.20
2018-11-10T19:09:32.402Z,12.20
2018-11-10T19:11:59.937Z,12.20
2018-11-10T19:14:29.441Z,12.30
2018-11-10T19:16:56.986Z,12.20
2018-11-10T19:19:24.557Z,12.20
2018-11-10T19:21:52.099Z,12.10
2018-11-10T19:24:19.674Z,12.00
2018-11-10T19:26:47.205Z,11.90
2018-11-10T19:29:14.775Z,11.80
2018-11-10T19:31:42.313Z,11.90
2018-11-10T19:34:09.881Z,11.80
2018-11-10T19:36:37.422Z,11.90
2018-11-10T19:39:04.997Z,11.90
2018-11-10T19:41:32.529Z,11.80
2018-11-10T19:44:00.108Z,11.80
2018-11-10T19:46:27.757Z,11.70
2018-11-10T19:48:55.289Z,11.80
2018-11-10T19:51:23.072Z,11.70
2018-11-10T19:53:51.635Z,11.70
2018-11-10T19:56:19.214Z,11.80
2018-11-10T19:58:46.762Z,11.80
2018-11-10T20:01:14.330Z,11.80
2018-11-10T20:03:41.869Z,11.80
2018-11-10T20:06:09.433Z,11.80
2018-11-10T20:08:36.975Z,11.80
2018-11-10T20:11:04.551Z,11.70
2018-11-10T20:13:32.085Z,11.70
2018-11-10T20:16:00.750Z,11.70
2018-11-10T20:18:29.056Z,11.70
2018-11-10T20:20:56.599Z,11.70
2018-11-10T20:23:26.129Z,11.70
2018-11-10T20:25:54.606Z,11.60
2018-11-10T20:28:22.161Z,11.60
2018-11-10T20:30:49.705Z,11.60
2018-11-10T20:33:19.202Z,11.60
2018-11-10T20:35:46.733Z,11.50
2018-11-10T20:38:14.297Z,11.60
2018-11-10T20:40:41.831Z,11.60
2018-11-10T20:43:09.397Z,11.70
2018-11-10T20:45:37.886Z,11.70
2018-11-10T20:48:05.466Z,11.70
2018-11-10T20:50:33.013Z,11.70
2018-11-10T20:53:00.603Z,11.70
2018-11-10T20:55:28.134Z,11.70
2018-11-10T20:57:55.790Z,11.70
2018-11-10T21:00:23.396Z,11.70
2018-11-10T21:02:50.916Z,11.60
2018-11-10T21:05:20.473Z,11.60
2018-11-10T21:07:48.005Z,11.70
2018-11-10T21:10:15.901Z,11.60
2018-11-10T21:12:43.466Z,11.60
2018-11-10T21:15:11.821Z,11.60
2018-11-10T21:17:39.360Z,11.50
2018-11-10T21:20:06.992Z,11.50
2018-11-10T21:22:34.517Z,11.50
2018-11-10T21:25:02.072Z,11.50
2018-11-10T21:27:31.565Z,11.50
2018-11-10T21:29:59.162Z,11.50
2018-11-10T21:32:26.698Z,11.50
2018-11-10T21:34:55.034Z,11.50
2018-11-10T21:37:22.606Z,11.50
2018-11-10T21:39:50.185Z,11.50
2018-11-10T21:42:17.722Z,11.50
2018-11-10T21:44:47.397Z,11.50
2018-11-10T21:47:14.961Z,11.50
2018-11-10T21:49:42.549Z,11.50
2018-11-10T21:52:10.104Z,11.40
2018-11-10T21:54:37.669Z,11.40
2018-11-10T21:57:05.247Z,11.50
2018-11-10T21:59:33.592Z,11.30
2018-11-10T22:02:02.096Z,11.30
2018-11-10T22:04:29.627Z,11.30
2018-11-10T22:06:57.185Z,11.30
2018-11-10T22:09:24.928Z,11.20
2018-11-10T22:11:53.394Z,11.30
2018-11-10T22:14:20.958Z,11.30
2018-11-10T22:16:49.543Z,11.20
2018-11-10T22:19:17.081Z,11.20
2018-11-10T22:21:44.675Z,11.20
2018-11-10T22:24:12.230Z,11.20
2018-11-10T22:26:39.808Z,11.30
2018-11-10T22:29:07.346Z,11.30
2018-11-10T22:31:34.910Z,11.30
2018-11-10T22:34:03.413Z,11.30
2018-11-10T22:36:30.981Z,11.30
2018-11-10T22:38:59.278Z,11.40
2018-11-10T22:41:26.838Z,11.40
2018-11-10T22:43:54.374Z,11.40
2018-11-10T22:46:21.937Z,11.40
2018-11-10T22:48:49.473Z,11.40
2018-11-10T22:51:17.805Z,11.40
2018-11-10T22:53:45.347Z,11.40
2018-11-10T22:56:12.914Z,11.40
2018-11-10T22:58:40.453Z,11.40
2018-11-10T23:01:08.016Z,11.50
2018-11-10T23:03:35.682Z,11.50
2018-11-10T23:06:03.285Z,11.50
2018-11-10T23:08:30.852Z,11.50
2018-11-10T23:10:58.377Z,11.60
2018-11-10T23:13:25.953Z,11.50
2018-11-10T23:15:53.493Z,11.50
2018-11-10T23:18:21.056Z,11.70
2018-11-10T23:20:48.591Z,11.70
2018-11-10T23:23:16.165Z,11.70
2018-11-10T23:25:43.733Z,11.70
2018-11-10T23:28:11.298Z,11.70
2018-11-10T23:30:38.829Z,11.60
2018-11-10T23:33:06.394Z,11.60
2018-11-10T23:35:33.974Z,11.50
2018-11-10T23:38:01.551Z,11.50
2018-11-10T23:40:29.086Z,11.60
2018-11-10T23:42:56.682Z,11.50
2018-11-10T23:45:24.250Z,11.50
2018-11-10T23:47:51.820Z,11.50
2018-11-10T23:50:19.363Z,11.60
2018-11-10T23:52:46.996Z,11.70
2018-11-10T23:55:14.498Z,11.80
2018-11-10T23:57:42.074Z,12.00
